createdAt,value
2022-09-06T00:00:17.962Z,22.25
2022-09-06T00:02:45.724Z,22.29
2022-09-06T00:05:14.205Z,22.02
2022-09-06T00:07:41.411Z,22.09
2022-09-06T00:10:08.869Z,22.09
2022-09-06T00:12:35.837Z,22.07
2022-09-06T00:15:04.030Z,22.00
2022-09-06T00:17:32.198Z,22.10
2022-09-06T00:19:59.570Z,22.14
2022-09-06T00:22:26.438Z,22.10
2022-09-06T00:24:53.262Z,21.90
2022-09-06T00:27:20.113Z,22.06
2022-09-06T00:29:46.978Z,21.68
2022-09-06T00:32:13.761Z,21.89
2022-09-06T00:34:40.560Z,21.85
2022-09-06T00:37:07.367Z,21.99
2022-09-06T00:39:34.790Z,22.03
2022-09-06T00:42:01.710Z,21.88
2022-09-06T00:44:28.577Z,22.05
2022-09-06T00:46:55.813Z,22.04
2022-09-06T00:49:27.603Z,21.81
2022-09-06T00:52:01.279Z,21.75
2022-09-06T00:54:28.400Z,21.82
2022-09-06T00:56:56.075Z,21.90
2022-09-06T00:59:26.021Z,21.86
2022-09-06T01:01:53.445Z,21.63
2022-09-06T01:04:20.645Z,21.66
2022-09-06T01:07:16.310Z,21.88
2022-09-06T01:10:02.196Z,21.60
2022-09-06T01:12:29.054Z,21.59
2022-09-06T01:15:16.087Z,21.45
2022-09-06T01:18:08.587Z,21.60
2022-09-06T01:21:02.605Z,21.39
2022-09-06T01:24:01.836Z,21.33
2022-09-06T01:26:56.509Z,21.41
2022-09-06T01:29:39.446Z,21.33
2022-09-06T01:32:19.252Z,21.38
2022-09-06T01:34:54.267Z,21.44
2022-09-06T01:37:23.756Z,21.30
2022-09-06T01:39:53.366Z,21.37
2022-09-06T01:42:28.169Z,21.37
2022-09-06T01:44:59.666Z,21.55
2022-09-06T01:47:29.494Z,21.40
2022-09-06T01:50:14.921Z,21.47
2022-09-06T01:53:04.532Z,21.55
2022-09-06T01:55:49.544Z,21.65
2022-09-06T01:58:59.076Z,21.61
2022-09-06T02:01:56.892Z,21.57
2022-09-06T02:04:33.759Z,21.67
2022-09-06T02:07:08.775Z,21.70
2022-09-06T02:09:41.047Z,21.80
2022-09-06T02:12:13.374Z,21.75
2022-09-06T02:14:49.794Z,21.66
2022-09-06T02:17:23.445Z,21.70
2022-09-06T02:20:13.393Z,21.45
2022-09-06T02:22:43.851Z,21.57
2022-09-06T02:25:18.592Z,21.75
2022-09-06T02:27:45.644Z,21.78
2022-09-06T02:30:12.955Z,21.93
2022-09-06T02:32:49.732Z,22.00
2022-09-06T02:35:17.244Z,21.80
2022-09-06T02:37:44.796Z,21.91
2022-09-06T02:40:12.346Z,22.10
2022-09-06T02:42:40.510Z,21.82
2022-09-06T02:45:08.305Z,21.98
2022-09-06T02:47:35.377Z,22.05
2022-09-06T02:50:02.293Z,22.08
2022-09-06T02:52:29.228Z,21.97
2022-09-06T02:54:56.468Z,21.77
2022-09-06T02:57:23.307Z,21.89
2022-09-06T02:59:50.166Z,21.97
2022-09-06T03:02:17.286Z,21.65
2022-09-06T03:04:44.202Z,21.75
2022-09-06T03:07:11.076Z,21.74
2022-09-06T03:09:37.932Z,21.79
2022-09-06T03:12:05.739Z,21.83
2022-09-06T03:14:32.556Z,21.64
2022-09-06T03:16:59.490Z,21.81
2022-09-06T03:19:26.428Z,21.73
2022-09-06T03:21:53.250Z,21.73
2022-09-06T03:24:20.083Z,21.60
2022-09-06T03:26:46.886Z,21.85
2022-09-06T03:29:13.797Z,21.70
2022-09-06T03:31:40.632Z,21.76
2022-09-06T03:34:10.892Z,21.53
2022-09-06T03:36:38.170Z,21.70
2022-09-06T03:39:05.019Z,21.60
2022-09-06T03:41:32.394Z,21.64
2022-09-06T03:43:59.241Z,21.46
2022-09-06T03:46:26.108Z,21.59
2022-09-06T03:48:52.969Z,21.82
2022-09-06T03:51:21.028Z,21.66
2022-09-06T03:53:47.932Z,21.60
2022-09-06T03:56:14.803Z,21.81
2022-09-06T03:58:41.639Z,21.93
2022-09-06T04:01:10.935Z,21.81
2022-09-06T04:03:38.958Z,21.48
2022-09-06T04:06:06.854Z,21.63
2022-09-06T04:08:34.328Z,21.67
2022-09-06T04:11:01.486Z,21.79
2022-09-06T04:13:29.426Z,21.58
2022-09-06T04:15:56.295Z,21.81
2022-09-06T04:18:23.614Z,21.90
2022-09-06T04:20:52.545Z,21.79
2022-09-06T04:23:20.304Z,22.00
2022-09-06T04:25:48.499Z,21.88
2022-09-06T04:28:18.238Z,21.83
2022-09-06T04:31:04.882Z,21.97
2022-09-06T04:33:34.241Z,21.84
2022-09-06T04:36:03.411Z,21.94
2022-09-06T04:38:34.662Z,22.08
2022-09-06T04:41:01.570Z,22.21
2022-09-06T04:43:28.396Z,22.10
2022-09-06T04:45:55.199Z,22.16
2022-09-06T04:48:22.388Z,22.02
2022-09-06T04:50:49.290Z,22.09
2022-09-06T04:53:16.074Z,22.21
2022-09-06T04:55:43.796Z,22.00
2022-09-06T04:58:11.096Z,22.11
2022-09-06T05:00:39.729Z,22.36
2022-09-06T05:03:06.610Z,22.49
2022-09-06T05:05:33.512Z,22.39
2022-09-06T05:08:00.862Z,22.54
2022-09-06T05:10:28.103Z,22.45
2022-09-06T05:12:55.036Z,22.46
2022-09-06T05:15:23.234Z,22.40
2022-09-06T05:17:50.219Z,22.35
2022-09-06T05:20:18.124Z,22.19
2022-09-06T05:22:53.188Z,22.33
2022-09-06T05:25:20.484Z,22.41
2022-09-06T05:27:47.272Z,22.37
2022-09-06T05:30:14.897Z,22.61
2022-09-06T05:32:41.747Z,22.56
2022-09-06T05:35:09.014Z,22.45
2022-09-06T05:37:35.920Z,22.47
2022-09-06T05:40:03.117Z,22.51
2022-09-06T05:42:30.003Z,22.48
2022-09-06T05:44:56.781Z,22.73
2022-09-06T05:47:23.639Z,22.82
2022-09-06T05:49:50.468Z,22.86
2022-09-06T05:52:17.566Z,22.55
2022-09-06T05:54:44.359Z,22.78
2022-09-06T05:57:11.151Z,22.64
2022-09-06T05:59:37.932Z,22.66
2022-09-06T06:02:07.475Z,22.29
2022-09-06T06:04:34.742Z,22.06
2022-09-06T06:07:01.941Z,22.05
2022-09-06T06:09:28.738Z,22.32
2022-09-06T06:11:55.613Z,22.35
2022-09-06T06:14:22.385Z,22.04
2022-09-06T06:16:49.316Z,21.76
2022-09-06T06:19:16.278Z,22.10
2022-09-06T06:21:43.766Z,22.16
2022-09-06T06:24:10.537Z,22.29
2022-09-06T06:26:38.089Z,22.42
2022-09-06T06:29:08.232Z,22.39
2022-09-06T06:31:36.879Z,22.18
2022-09-06T06:34:04.352Z,22.47
2022-09-06T06:36:33.815Z,22.53
2022-09-06T06:39:02.935Z,22.68
2022-09-06T06:41:32.354Z,22.37
2022-09-06T06:44:01.726Z,22.53
2022-09-06T06:46:32.593Z,22.49
2022-09-06T06:48:59.716Z,22.76
2022-09-06T06:51:32.417Z,22.78
2022-09-06T06:53:59.981Z,22.68
2022-09-06T06:56:29.972Z,22.62
2022-09-06T06:58:59.654Z,22.74
2022-09-06T07:01:29.462Z,22.35
2022-09-06T07:03:57.075Z,22.30
2022-09-06T07:09:11.422Z,22.27
2022-09-06T07:11:38.422Z,22.47
2022-09-06T07:14:05.456Z,22.44
2022-09-06T07:16:32.378Z,22.26
2022-09-06T07:18:59.403Z,22.43
2022-09-06T07:21:42.557Z,22.44
2022-09-06T07:24:10.090Z,22.74
2022-09-06T07:26:39.709Z,22.59
2022-09-06T07:29:08.270Z,22.43
2022-09-06T07:34:25.791Z,22.36
2022-09-06T07:36:54.179Z,22.59
2022-09-06T07:39:21.419Z,22.85
2022-09-06T07:41:48.487Z,22.92
2022-09-06T07:44:15.788Z,22.95
2022-09-06T07:46:42.968Z,23.16
2022-09-06T07:49:09.835Z,23.03
2022-09-06T07:51:36.785Z,22.89
2022-09-06T07:54:28.783Z,23.24
2022-09-06T07:56:51.205Z,23.16
2022-09-06T07:59:18.049Z,22.85
2022-09-06T08:01:44.932Z,23.34
2022-09-06T08:04:14.223Z,23.32
2022-09-06T08:09:35.155Z,23.67
2022-09-06T08:12:07.404Z,23.24
2022-09-06T08:14:34.946Z,23.07
2022-09-06T08:17:03.192Z,22.93
2022-09-06T08:19:30.228Z,23.21
2022-09-06T08:21:57.306Z,23.07
2022-09-06T08:24:24.146Z,22.96
2022-09-06T08:26:51.088Z,22.89
2022-09-06T08:29:19.836Z,22.80
2022-09-06T08:31:46.896Z,22.91
2022-09-06T08:34:15.120Z,23.16
2022-09-06T08:36:42.360Z,23.06
2022-09-06T08:39:10.470Z,23.19
2022-09-06T08:41:58.568Z,23.47
2022-09-06T08:44:57.647Z,23.18
2022-09-06T08:47:25.279Z,23.61
2022-09-06T08:50:01.230Z,23.51
2022-09-06T08:53:06.161Z,23.57
2022-09-06T08:55:54.175Z,23.43
2022-09-06T08:58:26.949Z,23.47
2022-09-06T09:01:08.806Z,23.54
2022-09-06T09:03:37.959Z,23.42
2022-09-06T09:06:07.402Z,23.87
2022-09-06T09:09:08.023Z,23.72
2022-09-06T09:11:36.399Z,23.68
2022-09-06T09:14:16.842Z,23.50
2022-09-06T09:16:44.402Z,23.22
2022-09-06T09:19:11.323Z,23.29
2022-09-06T09:21:40.474Z,23.98
2022-09-06T09:24:10.005Z,23.55
2022-09-06T09:27:08.642Z,23.71
2022-09-06T09:32:46.268Z,23.98
2022-09-06T09:35:30.018Z,24.13
2022-09-06T09:38:13.312Z,24.04
2022-09-06T09:40:49.249Z,24.08
2022-09-06T09:43:20.867Z,24.32
2022-09-06T09:46:11.936Z,24.64
2022-09-06T09:48:40.407Z,24.63
2022-09-06T09:51:27.650Z,24.12
2022-09-06T09:53:57.440Z,24.14
2022-09-06T09:56:49.754Z,24.60
2022-09-06T09:59:21.922Z,24.55
2022-09-06T10:01:49.431Z,24.28
2022-09-06T10:04:45.326Z,23.68
2022-09-06T10:07:24.156Z,24.14
2022-09-06T10:10:00.730Z,24.49
2022-09-06T10:12:30.069Z,24.78
2022-09-06T10:14:57.789Z,24.81
2022-09-06T10:17:48.417Z,24.40
2022-09-06T10:20:16.467Z,24.53
2022-09-06T10:23:04.984Z,25.00
2022-09-06T10:25:37.799Z,22.87
2022-09-06T10:28:22.874Z,23.52
2022-09-06T10:31:05.640Z,23.73
2022-09-06T10:34:00.440Z,23.42
2022-09-06T10:36:36.006Z,23.59
2022-09-06T10:39:26.892Z,24.59
2022-09-06T10:42:07.105Z,25.41
2022-09-06T10:44:49.313Z,25.60
2022-09-06T10:47:16.557Z,25.54
2022-09-06T10:49:54.239Z,25.48
2022-09-06T10:52:31.300Z,25.45
2022-09-06T10:55:05.625Z,25.78
2022-09-06T11:00:47.671Z,25.71
2022-09-06T11:06:12.787Z,26.46
2022-09-06T11:09:00.395Z,25.92
2022-09-06T11:11:43.482Z,25.73
2022-09-06T11:14:15.426Z,25.79
2022-09-06T11:16:57.697Z,25.89
2022-09-06T11:19:31.835Z,25.88
2022-09-06T11:22:38.715Z,26.62
2022-09-06T11:25:43.036Z,26.63
2022-09-06T11:28:15.930Z,26.77
2022-09-06T11:30:48.261Z,26.76
2022-09-06T11:33:27.518Z,26.88
2022-09-06T11:36:28.588Z,26.46
2022-09-06T11:38:57.990Z,27.13
2022-09-06T11:41:31.437Z,27.38
2022-09-06T11:43:59.206Z,27.28
2022-09-06T11:46:35.254Z,26.90
2022-09-06T11:49:06.284Z,27.50
2022-09-06T11:51:38.140Z,27.32
2022-09-06T11:54:30.465Z,27.28
2022-09-06T11:57:12.667Z,27.80
2022-09-06T11:59:45.871Z,27.57
2022-09-06T12:02:40.831Z,27.54
2022-09-06T12:05:11.741Z,27.98
2022-09-06T12:07:59.347Z,27.58
2022-09-06T12:10:29.193Z,27.83
2022-09-06T12:12:57.529Z,27.86
2022-09-06T12:15:30.938Z,27.75
2022-09-06T12:17:59.817Z,27.93
2022-09-06T12:20:48.529Z,27.65
2022-09-06T12:23:42.793Z,28.21
2022-09-06T12:26:10.878Z,28.18
2022-09-06T12:28:49.796Z,28.56
2022-09-06T12:31:36.687Z,28.45
2022-09-06T12:34:14.187Z,28.72
2022-09-06T12:37:03.630Z,28.77
2022-09-06T12:39:31.518Z,28.74
2022-09-06T12:42:02.561Z,29.10
2022-09-06T12:44:35.702Z,29.39
2022-09-06T12:47:12.842Z,29.88
2022-09-06T12:49:39.701Z,29.54
2022-09-06T12:52:13.969Z,29.86
2022-09-06T12:54:48.207Z,29.76
2022-09-06T12:57:26.017Z,29.37
2022-09-06T12:59:55.486Z,29.67
2022-09-06T13:02:58.286Z,29.97
2022-09-06T13:05:26.712Z,30.58
2022-09-06T13:07:58.091Z,30.53
2022-09-06T13:10:26.272Z,30.30
2022-09-06T13:12:55.343Z,30.13
2022-09-06T13:15:31.984Z,30.21
2022-09-06T13:18:31.087Z,30.46
2022-09-06T13:21:05.725Z,30.49
2022-09-06T13:23:47.699Z,30.49
2022-09-06T13:26:15.471Z,30.58
2022-09-06T13:28:42.299Z,30.54
2022-09-06T13:31:20.143Z,30.59
2022-09-06T13:33:59.484Z,30.52
2022-09-06T13:36:32.976Z,30.38
2022-09-06T13:39:03.556Z,30.96
2022-09-06T13:41:30.339Z,30.85
2022-09-06T13:44:07.876Z,30.96
2022-09-06T13:46:38.116Z,31.08
2022-09-06T13:49:05.714Z,30.71
2022-09-06T13:51:34.073Z,30.84
2022-09-06T13:54:15.156Z,30.84
2022-09-06T13:56:44.722Z,30.82
2022-09-06T13:59:12.235Z,31.48
2022-09-06T14:01:44.768Z,31.24
2022-09-06T14:04:14.738Z,31.22
2022-09-06T14:06:42.260Z,31.97
2022-09-06T14:09:09.541Z,31.87
2022-09-06T14:11:37.119Z,31.88
2022-09-06T14:14:05.006Z,31.58
2022-09-06T14:16:33.242Z,31.77
2022-09-06T14:19:00.028Z,31.56
2022-09-06T14:21:26.976Z,32.36
2022-09-06T14:23:54.077Z,32.25
2022-09-06T14:26:21.980Z,31.81
2022-09-06T14:28:49.104Z,31.89
2022-09-06T14:31:26.214Z,31.96
2022-09-06T14:33:54.612Z,31.91
2022-09-06T14:36:23.981Z,32.06
2022-09-06T14:38:51.252Z,31.34
2022-09-06T14:41:19.258Z,31.72
2022-09-06T14:43:52.079Z,31.34
2022-09-06T14:46:22.092Z,31.83
2022-09-06T14:48:49.655Z,31.38
2022-09-06T14:51:21.846Z,31.17
2022-09-06T14:53:51.025Z,31.26
2022-09-06T14:56:18.632Z,31.41
2022-09-06T14:58:46.628Z,31.22
2022-09-06T15:01:19.513Z,31.27
2022-09-06T15:03:51.469Z,31.75
2022-09-06T15:06:22.910Z,31.15
2022-09-06T15:08:50.642Z,30.93
2022-09-06T15:11:35.559Z,31.00
2022-09-06T15:14:24.107Z,30.81
2022-09-06T15:16:55.913Z,31.04
2022-09-06T15:19:24.849Z,30.88
2022-09-06T15:21:51.804Z,30.91
2022-09-06T15:24:18.765Z,31.34
2022-09-06T15:26:45.993Z,31.02
2022-09-06T15:29:14.097Z,30.88
2022-09-06T15:31:42.712Z,30.64
2022-09-06T15:34:10.481Z,30.98
2022-09-06T15:36:37.349Z,30.17
2022-09-06T15:39:05.226Z,30.24
2022-09-06T15:41:35.675Z,30.41
2022-09-06T15:44:13.912Z,29.75
2022-09-06T15:46:40.650Z,30.20
2022-09-06T15:49:09.612Z,30.20
2022-09-06T15:51:38.210Z,30.36
2022-09-06T15:54:06.359Z,30.73
2022-09-06T15:56:33.302Z,30.16
2022-09-06T15:59:00.224Z,29.81
2022-09-06T16:01:27.251Z,30.23
2022-09-06T16:04:03.281Z,29.95
2022-09-06T16:06:33.153Z,29.29
2022-09-06T16:09:06.307Z,29.17
2022-09-06T16:11:36.527Z,29.05
2022-09-06T16:14:05.687Z,29.60
2022-09-06T16:16:34.601Z,29.38
2022-09-06T16:19:01.784Z,29.48
2022-09-06T16:21:32.238Z,29.29
2022-09-06T16:24:04.770Z,28.96
2022-09-06T16:26:37.293Z,28.60
2022-09-06T16:29:06.827Z,28.40
2022-09-06T16:31:39.122Z,28.52
2022-09-06T16:34:07.997Z,28.81
2022-09-06T16:36:35.192Z,28.04
2022-09-06T16:39:02.741Z,28.37
2022-09-06T16:41:42.300Z,28.37
2022-09-06T16:44:16.040Z,28.68
2022-09-06T16:46:48.348Z,28.71
2022-09-06T16:49:17.475Z,28.62
2022-09-06T16:51:45.355Z,28.19
2022-09-06T16:54:12.611Z,28.61
2022-09-06T16:56:40.072Z,28.78
2022-09-06T16:59:08.627Z,28.93
2022-09-06T17:01:37.425Z,28.36
2022-09-06T17:04:05.519Z,28.45
2022-09-06T17:06:38.914Z,27.95
2022-09-06T17:09:05.837Z,27.91
2022-09-06T17:11:32.708Z,27.67
2022-09-06T17:13:59.899Z,27.65
2022-09-06T17:16:45.372Z,27.96
2022-09-06T17:19:13.580Z,27.84
2022-09-06T17:21:41.191Z,27.94
2022-09-06T17:24:08.966Z,27.77
2022-09-06T17:26:38.383Z,27.60
2022-09-06T17:29:06.236Z,27.73
2022-09-06T17:31:33.389Z,27.55
2022-09-06T17:34:00.341Z,27.48
2022-09-06T17:36:30.560Z,27.10
2022-09-06T17:39:03.518Z,26.94
2022-09-06T17:41:37.089Z,26.91
2022-09-06T17:44:05.710Z,27.14
2022-09-06T17:46:32.746Z,26.96
2022-09-06T17:48:59.651Z,26.79
2022-09-06T17:51:26.489Z,26.78
2022-09-06T17:53:53.628Z,27.03
2022-09-06T17:56:21.233Z,27.13
2022-09-06T17:58:56.166Z,27.01
2022-09-06T18:01:24.959Z,26.77
2022-09-06T18:03:52.565Z,26.47
2022-09-06T18:06:24.711Z,26.26
2022-09-06T18:08:55.017Z,26.22
2022-09-06T18:11:28.086Z,26.18
2022-09-06T18:14:00.216Z,26.10
2022-09-06T18:16:28.483Z,26.33
2022-09-06T18:18:58.125Z,25.90
2022-09-06T18:21:26.451Z,25.71
2022-09-06T18:23:54.494Z,25.77
2022-09-06T18:26:21.611Z,25.81
2022-09-06T18:28:48.618Z,25.78
2022-09-06T18:31:19.237Z,25.95
2022-09-06T18:33:46.658Z,25.88
2022-09-06T18:36:19.762Z,25.68
2022-09-06T18:38:46.933Z,25.58
2022-09-06T18:41:34.048Z,25.11
2022-09-06T18:44:02.877Z,25.59
2022-09-06T18:46:32.100Z,25.29
2022-09-06T18:48:59.446Z,24.59
2022-09-06T18:51:26.438Z,25.05
2022-09-06T18:53:55.347Z,25.32
2022-09-06T18:56:22.489Z,25.20
2022-09-06T18:58:49.753Z,25.12
2022-09-06T19:01:18.258Z,24.92
2022-09-06T19:03:45.232Z,24.88
2022-09-06T19:06:16.229Z,24.81
2022-09-06T19:08:43.444Z,24.84
2022-09-06T19:11:12.736Z,24.59
2022-09-06T19:13:41.898Z,24.64
2022-09-06T19:16:10.329Z,24.78
2022-09-06T19:18:38.340Z,24.49
2022-09-06T19:21:26.008Z,25.27
2022-09-06T19:23:58.942Z,25.03
2022-09-06T19:26:28.150Z,25.03
2022-09-06T19:28:57.713Z,24.94
2022-09-06T19:31:27.097Z,24.98
2022-09-06T19:33:55.466Z,25.07
2022-09-06T19:36:23.761Z,25.19
2022-09-06T19:39:04.417Z,25.41
2022-09-06T19:41:35.809Z,25.50
2022-09-06T19:44:05.732Z,25.13
2022-09-06T19:46:33.099Z,24.68
2022-09-06T19:49:00.564Z,24.96
2022-09-06T19:51:27.574Z,24.93
2022-09-06T19:53:59.997Z,24.90
2022-09-06T19:56:32.661Z,24.91
2022-09-06T19:59:08.194Z,25.06
2022-09-06T20:01:37.723Z,25.06
2022-09-06T20:04:07.022Z,24.90
2022-09-06T20:06:35.207Z,24.94
2022-09-06T20:09:03.312Z,24.66
2022-09-06T20:11:32.286Z,25.07
2022-09-06T20:14:00.043Z,24.88
2022-09-06T20:16:27.335Z,24.85
2022-09-06T20:18:55.308Z,24.98
2022-09-06T20:21:22.509Z,24.63
2022-09-06T20:23:54.128Z,24.59
2022-09-06T20:26:23.734Z,24.72
2022-09-06T20:28:58.588Z,24.67
2022-09-06T20:31:26.521Z,24.65
2022-09-06T20:33:53.791Z,24.70
2022-09-06T20:36:20.986Z,24.66
2022-09-06T20:38:48.550Z,24.64
2022-09-06T20:41:23.855Z,24.52
2022-09-06T20:43:58.580Z,24.65
2022-09-06T20:46:27.669Z,24.65
2022-09-06T20:48:57.713Z,24.62
2022-09-06T20:51:25.239Z,24.51
2022-09-06T20:53:55.429Z,24.57
2022-09-06T20:56:24.871Z,24.50
2022-09-06T20:58:53.959Z,24.50
2022-09-06T21:01:25.282Z,24.45
2022-09-06T21:03:54.412Z,24.30
2022-09-06T21:06:22.874Z,24.37
2022-09-06T21:08:50.364Z,24.23
2022-09-06T21:11:17.935Z,24.25
2022-09-06T21:13:49.698Z,24.02
2022-09-06T21:16:20.508Z,24.36
2022-09-06T21:18:55.356Z,24.00
2022-09-06T21:21:22.625Z,24.26
2022-09-06T21:23:49.425Z,24.36
2022-09-06T21:26:16.459Z,24.28
2022-09-06T21:28:45.443Z,24.12
2022-09-06T21:31:19.822Z,23.82
2022-09-06T21:33:48.600Z,23.96
2022-09-06T21:36:18.657Z,23.72
2022-09-06T21:38:47.883Z,23.53
2022-09-06T21:41:16.975Z,23.27
2022-09-06T21:43:45.174Z,23.52
2022-09-06T21:46:20.512Z,23.24
2022-09-06T21:48:50.077Z,23.47
2022-09-06T21:51:19.375Z,23.28
2022-09-06T21:53:48.906Z,23.38
2022-09-06T21:56:16.617Z,23.29
2022-09-06T21:58:44.616Z,23.34
2022-09-06T22:01:11.865Z,23.23
2022-09-06T22:03:45.623Z,23.10
2022-09-06T22:06:15.433Z,22.30
2022-09-06T22:08:43.874Z,22.41
2022-09-06T22:11:32.186Z,22.58
2022-09-06T22:14:04.023Z,22.39
2022-09-06T22:16:32.675Z,22.36
2022-09-06T22:18:59.920Z,22.21
2022-09-06T22:21:26.931Z,22.13
2022-09-06T22:23:58.731Z,22.21
2022-09-06T22:26:27.992Z,22.20
2022-09-06T22:28:59.924Z,22.02
2022-09-06T22:31:28.643Z,22.20
2022-09-06T22:33:56.506Z,21.99
2022-09-06T22:36:24.514Z,22.00
2022-09-06T22:38:58.937Z,21.85
2022-09-06T22:41:27.571Z,21.98
2022-09-06T22:43:54.902Z,21.68
2022-09-06T22:46:21.749Z,21.83
2022-09-06T22:48:49.259Z,21.75
2022-09-06T22:51:16.457Z,21.93
2022-09-06T22:53:43.705Z,21.93
2022-09-06T22:56:10.765Z,21.98
2022-09-06T22:58:37.568Z,22.06
2022-09-06T23:01:11.716Z,21.80
2022-09-06T23:03:39.343Z,21.93
2022-09-06T23:06:09.748Z,21.68
2022-09-06T23:08:38.632Z,22.01
2022-09-06T23:11:08.086Z,22.07
2022-09-06T23:13:35.166Z,22.22
2022-09-06T23:16:06.625Z,22.41
2022-09-06T23:18:34.046Z,22.41
2022-09-06T23:21:09.140Z,22.77
2022-09-06T23:23:36.805Z,22.68
2022-09-06T23:26:24.128Z,22.72
2022-09-06T23:28:56.394Z,22.57
2022-09-06T23:31:28.739Z,22.43
2022-09-06T23:33:57.592Z,22.29
2022-09-06T23:36:25.065Z,22.62
2022-09-06T23:38:52.327Z,22.79
2022-09-06T23:41:19.185Z,22.88
2022-09-06T23:43:45.997Z,22.92
2022-09-06T23:46:14.778Z,22.94
2022-09-06T23:48:42.899Z,22.67
2022-09-06T23:51:09.804Z,22.60
2022-09-06T23:53:36.717Z,22.61
2022-09-06T23:56:04.449Z,22.49
2022-09-06T23:58:31.790Z,22.63
